DLH36E EDDF-LFPG
Flight info
| Callsign | DLH36E |
|---|---|
| Flight time | 0h 50m |
| Altitude | 24000 |
| Route | SOBRA2L SOBRA Y180 DIK UN857 TOLVU/N0355F230 DCT RAPOR DCT VEDUS |
| Aircraft | A320/M-SDE2E3FGIJ1LORWXYZ/HB1 |
Departure
| Time | 2026-05-08 19:33 |
|---|---|
| Airport | Frankfurt Main Airport (EDDF) |
Arrival
| Time | 2026-05-08 20:24 |
|---|---|
| Airport | Charles de Gaulle International Airport (LFPG) |
| Time | Latitude | Longitude | Altitude | Speed | Heading |
|---|---|---|---|---|---|
| 2026-05-08 19:02 | 50.04849 | 8.56957 | 346 ft | 0 kts | 294° |
| 2026-05-08 19:15 | 50.04844 | 8.56977 | 356 ft | 4 kts | 296° |
| 2026-05-08 19:15 | 50.04832 | 8.57014 | 356 ft | 4 kts | 294° |
| 2026-05-08 19:15 | 50.04825 | 8.57050 | 356 ft | 4 kts | 250° |
| 2026-05-08 19:15 | 50.04839 | 8.57068 | 356 ft | 4 kts | 205° |
| 2026-05-08 19:16 | 50.04857 | 8.57081 | 354 ft | 0 kts | 205° |
| 2026-05-08 19:19 | 50.04836 | 8.57066 | 356 ft | 4 kts | 205° |
| 2026-05-08 19:20 | 50.04833 | 8.57064 | 356 ft | 0 kts | 205° |
| 2026-05-08 19:20 | 50.04827 | 8.57059 | 356 ft | 6 kts | 205° |
| 2026-05-08 19:20 | 50.04767 | 8.57016 | 351 ft | 9 kts | 205° |
| 2026-05-08 19:21 | 50.04710 | 8.56976 | 348 ft | 8 kts | 204° |
| 2026-05-08 19:21 | 50.04658 | 8.56939 | 347 ft | 8 kts | 204° |
| 2026-05-08 19:21 | 50.04608 | 8.56912 | 346 ft | 7 kts | 194° |
| 2026-05-08 19:21 | 50.04563 | 8.56895 | 349 ft | 6 kts | 193° |
| 2026-05-08 19:22 | 50.04527 | 8.56882 | 345 ft | 0 kts | 193° |
| 2026-05-08 19:22 | 50.04526 | 8.56882 | 346 ft | 0 kts | 193° |
| 2026-05-08 19:22 | 50.04525 | 8.56882 | 346 ft | 2 kts | 193° |
| 2026-05-08 19:23 | 50.04468 | 8.56861 | 346 ft | 11 kts | 193° |
| 2026-05-08 19:23 | 50.04399 | 8.56843 | 348 ft | 10 kts | 188° |
| 2026-05-08 19:23 | 50.04337 | 8.56826 | 346 ft | 9 kts | 193° |
| 2026-05-08 19:23 | 50.04258 | 8.56792 | 354 ft | 13 kts | 211° |
| 2026-05-08 19:24 | 50.04222 | 8.56674 | 355 ft | 11 kts | 249° |
| 2026-05-08 19:24 | 50.04195 | 8.56564 | 352 ft | 10 kts | 249° |
| 2026-05-08 19:24 | 50.04166 | 8.56441 | 353 ft | 14 kts | 249° |
| 2026-05-08 19:24 | 50.04132 | 8.56298 | 349 ft | 14 kts | 250° |
| 2026-05-08 19:25 | 50.04100 | 8.56168 | 347 ft | 12 kts | 249° |
| 2026-05-08 19:25 | 50.04071 | 8.56045 | 346 ft | 15 kts | 250° |
| 2026-05-08 19:25 | 50.04026 | 8.55849 | 347 ft | 21 kts | 251° |
| 2026-05-08 19:25 | 50.03972 | 8.55627 | 348 ft | 23 kts | 249° |
| 2026-05-08 19:26 | 50.03914 | 8.55387 | 348 ft | 25 kts | 250° |
| 2026-05-08 19:26 | 50.03854 | 8.55125 | 349 ft | 26 kts | 250° |
| 2026-05-08 19:26 | 50.03787 | 8.54849 | 352 ft | 28 kts | 249° |
| 2026-05-08 19:26 | 50.03716 | 8.54557 | 349 ft | 30 kts | 250° |
| 2026-05-08 19:27 | 50.03643 | 8.54250 | 347 ft | 31 kts | 248° |
| 2026-05-08 19:27 | 50.03604 | 8.54087 | 353 ft | 0 kts | 250° |
| 2026-05-08 19:28 | 50.03604 | 8.54086 | 353 ft | 1 kts | 250° |
| 2026-05-08 19:28 | 50.03589 | 8.54022 | 350 ft | 8 kts | 249° |
| 2026-05-08 19:28 | 50.03562 | 8.53907 | 349 ft | 12 kts | 249° |
| 2026-05-08 19:28 | 50.03526 | 8.53760 | 352 ft | 16 kts | 249° |
| 2026-05-08 19:29 | 50.03488 | 8.53608 | 351 ft | 14 kts | 249° |
| 2026-05-08 19:29 | 50.03455 | 8.53469 | 349 ft | 13 kts | 250° |
| 2026-05-08 19:29 | 50.03425 | 8.53344 | 350 ft | 12 kts | 249° |
| 2026-05-08 19:29 | 50.03398 | 8.53231 | 354 ft | 11 kts | 250° |
| 2026-05-08 19:30 | 50.03373 | 8.53130 | 352 ft | 9 kts | 250° |
| 2026-05-08 19:30 | 50.03351 | 8.53037 | 347 ft | 10 kts | 250° |
| 2026-05-08 19:30 | 50.03327 | 8.52935 | 353 ft | 10 kts | 250° |
| 2026-05-08 19:30 | 50.03303 | 8.52832 | 350 ft | 10 kts | 249° |
| 2026-05-08 19:31 | 50.03280 | 8.52739 | 348 ft | 9 kts | 249° |
| 2026-05-08 19:31 | 50.03251 | 8.52662 | 350 ft | 10 kts | 232° |
| 2026-05-08 19:31 | 50.03198 | 8.52610 | 346 ft | 9 kts | 201° |
| 2026-05-08 19:31 | 50.03143 | 8.52596 | 346 ft | 8 kts | 179° |
| 2026-05-08 19:32 | 50.03027 | 8.52597 | 352 ft | 46 kts | 180° |
| 2026-05-08 19:32 | 50.02441 | 8.52604 | 354 ft | 118 kts | 180° |
| 2026-05-08 19:32 | 50.01436 | 8.52618 | 348 ft | 171 kts | 179° |
| 2026-05-08 19:32 | 50.00106 | 8.52634 | 348 ft | 209 kts | 179° |
| 2026-05-08 19:33 | 49.98597 | 8.52623 | 758 ft | 222 kts | 180° |
| 2026-05-08 19:33 | 49.97035 | 8.52607 | 1572 ft | 225 kts | 178° |
| 2026-05-08 19:33 | 49.95459 | 8.52667 | 2424 ft | 227 kts | 175° |
| 2026-05-08 19:33 | 49.93875 | 8.52783 | 3296 ft | 229 kts | 174° |
| 2026-05-08 19:34 | 49.92283 | 8.52953 | 4181 ft | 229 kts | 174° |
| 2026-05-08 19:34 | 49.90698 | 8.53176 | 5049 ft | 229 kts | 174° |
| 2026-05-08 19:34 | 49.89099 | 8.53431 | 5750 ft | 238 kts | 176° |
| 2026-05-08 19:34 | 49.87404 | 8.53411 | 6347 ft | 248 kts | 191° |
| 2026-05-08 19:35 | 49.85757 | 8.52636 | 7149 ft | 248 kts | 202° |
| 2026-05-08 19:35 | 49.84137 | 8.51679 | 7950 ft | 251 kts | 202° |
| 2026-05-08 19:35 | 49.82488 | 8.50732 | 8740 ft | 254 kts | 201° |
| 2026-05-08 19:35 | 49.80812 | 8.49785 | 9534 ft | 258 kts | 201° |
| 2026-05-08 19:36 | 49.79124 | 8.48800 | 10279 ft | 261 kts | 207° |
| 2026-05-08 19:36 | 49.77634 | 8.47197 | 10976 ft | 263 kts | 226° |
| 2026-05-08 19:36 | 49.76585 | 8.44882 | 11674 ft | 265 kts | 245° |
| 2026-05-08 19:36 | 49.76110 | 8.42111 | 12365 ft | 270 kts | 265° |
| 2026-05-08 19:37 | 49.76277 | 8.39243 | 13041 ft | 275 kts | 282° |
| 2026-05-08 19:37 | 49.76751 | 8.36358 | 13733 ft | 278 kts | 283° |
| 2026-05-08 19:37 | 49.77226 | 8.33444 | 14355 ft | 281 kts | 282° |
| 2026-05-08 19:37 | 49.77706 | 8.30472 | 14881 ft | 290 kts | 282° |
| 2026-05-08 19:38 | 49.78213 | 8.27316 | 15060 ft | 314 kts | 282° |
| 2026-05-08 19:38 | 49.78757 | 8.23911 | 15213 ft | 337 kts | 282° |
| 2026-05-08 19:38 | 49.79090 | 8.20236 | 15333 ft | 357 kts | 269° |
| 2026-05-08 19:38 | 49.79067 | 8.16276 | 15459 ft | 377 kts | 268° |
| 2026-05-08 19:39 | 49.79019 | 8.12121 | 15596 ft | 395 kts | 268° |
| 2026-05-08 19:39 | 49.78956 | 8.07796 | 15859 ft | 407 kts | 268° |
| 2026-05-08 19:39 | 49.78888 | 8.03389 | 16349 ft | 412 kts | 268° |
| 2026-05-08 19:39 | 49.78825 | 7.98987 | 16897 ft | 415 kts | 268° |
| 2026-05-08 19:40 | 49.78766 | 7.94507 | 17443 ft | 417 kts | 268° |
| 2026-05-08 19:40 | 49.78708 | 7.90013 | 17974 ft | 420 kts | 268° |
| 2026-05-08 19:40 | 49.78650 | 7.85478 | 18472 ft | 422 kts | 268° |
| 2026-05-08 19:40 | 49.78589 | 7.80910 | 18909 ft | 425 kts | 268° |
| 2026-05-08 19:41 | 49.78524 | 7.76336 | 19332 ft | 427 kts | 268° |
| 2026-05-08 19:41 | 49.78457 | 7.71732 | 19747 ft | 429 kts | 268° |
| 2026-05-08 19:41 | 49.78389 | 7.67095 | 20148 ft | 432 kts | 268° |
| 2026-05-08 19:41 | 49.78317 | 7.62434 | 20532 ft | 434 kts | 268° |
| 2026-05-08 19:42 | 49.78239 | 7.57748 | 20903 ft | 436 kts | 268° |
| 2026-05-08 19:42 | 49.78156 | 7.53038 | 21264 ft | 439 kts | 268° |
| 2026-05-08 19:42 | 49.78070 | 7.48313 | 21621 ft | 441 kts | 268° |
| 2026-05-08 19:42 | 49.77984 | 7.43557 | 21971 ft | 442 kts | 268° |
| 2026-05-08 19:43 | 49.77901 | 7.38841 | 22309 ft | 444 kts | 268° |
| 2026-05-08 19:43 | 49.77815 | 7.34043 | 22641 ft | 446 kts | 268° |
| 2026-05-08 19:43 | 49.77726 | 7.29222 | 22960 ft | 448 kts | 268° |
| 2026-05-08 19:43 | 49.77635 | 7.24393 | 23271 ft | 450 kts | 268° |
| 2026-05-08 19:44 | 49.77541 | 7.19533 | 23554 ft | 452 kts | 268° |
| 2026-05-08 19:44 | 49.77444 | 7.14656 | 23803 ft | 454 kts | 268° |
| 2026-05-08 19:44 | 49.77343 | 7.09764 | 24021 ft | 456 kts | 268° |
| 2026-05-08 19:44 | 49.77240 | 7.04867 | 24100 ft | 456 kts | 268° |
| 2026-05-08 19:45 | 49.77136 | 6.99965 | 24115 ft | 456 kts | 268° |
| 2026-05-08 19:45 | 49.77031 | 6.95063 | 24114 ft | 456 kts | 268° |
| 2026-05-08 19:45 | 49.76925 | 6.90152 | 24114 ft | 455 kts | 267° |
| 2026-05-08 19:45 | 49.76815 | 6.85257 | 24111 ft | 456 kts | 267° |
| 2026-05-08 19:46 | 49.76700 | 6.80357 | 24105 ft | 455 kts | 267° |
| 2026-05-08 19:46 | 49.76585 | 6.75468 | 24107 ft | 456 kts | 268° |
| 2026-05-08 19:46 | 49.76354 | 6.65535 | 24104 ft | 467 kts | 267° |
| 2026-05-08 19:47 | 49.76229 | 6.60500 | 24104 ft | 470 kts | 267° |
| 2026-05-08 19:47 | 49.76099 | 6.55421 | 24106 ft | 473 kts | 267° |
| 2026-05-08 19:47 | 49.75967 | 6.50333 | 24105 ft | 474 kts | 267° |
| 2026-05-08 19:47 | 49.75836 | 6.45231 | 24106 ft | 474 kts | 267° |
| 2026-05-08 19:48 | 49.75702 | 6.40141 | 24108 ft | 474 kts | 267° |
| 2026-05-08 19:48 | 49.75568 | 6.35051 | 24109 ft | 474 kts | 267° |
| 2026-05-08 19:48 | 49.75434 | 6.29938 | 24112 ft | 475 kts | 268° |
| 2026-05-08 19:48 | 49.75299 | 6.24885 | 24109 ft | 476 kts | 268° |
| 2026-05-08 19:49 | 49.75157 | 6.19759 | 24110 ft | 476 kts | 268° |
| 2026-05-08 19:49 | 49.75010 | 6.14644 | 24108 ft | 476 kts | 267° |
| 2026-05-08 19:49 | 49.74859 | 6.09533 | 24106 ft | 476 kts | 267° |
| 2026-05-08 19:49 | 49.74706 | 6.04419 | 24104 ft | 476 kts | 267° |
| 2026-05-08 19:50 | 49.74550 | 5.99304 | 24102 ft | 476 kts | 267° |
| 2026-05-08 19:50 | 49.74390 | 5.94194 | 24100 ft | 476 kts | 267° |
| 2026-05-08 19:50 | 49.74208 | 5.89090 | 24095 ft | 476 kts | 264° |
| 2026-05-08 19:50 | 49.73509 | 5.84108 | 24088 ft | 476 kts | 252° |
| 2026-05-08 19:51 | 49.72412 | 5.79279 | 24084 ft | 477 kts | 251° |
| 2026-05-08 19:51 | 49.71296 | 5.74452 | 24081 ft | 477 kts | 251° |
| 2026-05-08 19:51 | 49.70171 | 5.69636 | 24079 ft | 477 kts | 251° |
| 2026-05-08 19:51 | 49.69037 | 5.64812 | 24077 ft | 477 kts | 251° |
| 2026-05-08 19:52 | 49.67901 | 5.59997 | 24077 ft | 477 kts | 251° |
| 2026-05-08 19:52 | 49.66767 | 5.55188 | 24078 ft | 477 kts | 251° |
| 2026-05-08 19:52 | 49.65659 | 5.50487 | 24096 ft | 452 kts | 251° |
| 2026-05-08 19:52 | 49.64613 | 5.46052 | 24099 ft | 427 kts | 250° |
| 2026-05-08 19:53 | 49.63622 | 5.41856 | 24097 ft | 406 kts | 251° |
| 2026-05-08 19:53 | 49.62675 | 5.37830 | 24094 ft | 396 kts | 251° |
| 2026-05-08 19:53 | 49.61757 | 5.33827 | 24099 ft | 395 kts | 252° |
| 2026-05-08 19:53 | 49.60884 | 5.29813 | 24098 ft | 395 kts | 253° |
| 2026-05-08 19:54 | 49.60038 | 5.25793 | 24101 ft | 394 kts | 253° |
| 2026-05-08 19:54 | 49.59343 | 5.21716 | 24100 ft | 393 kts | 262° |
| 2026-05-08 19:54 | 49.59166 | 5.17513 | 24101 ft | 392 kts | 272° |
| 2026-05-08 19:54 | 49.59249 | 5.13317 | 24100 ft | 392 kts | 276° |
| 2026-05-08 19:55 | 49.59910 | 5.09278 | 24101 ft | 390 kts | 295° |
| 2026-05-08 19:55 | 49.61366 | 5.05848 | 24102 ft | 388 kts | 311° |
| 2026-05-08 19:55 | 49.63174 | 5.02736 | 24100 ft | 389 kts | 313° |
| 2026-05-08 19:55 | 49.65000 | 4.99660 | 24095 ft | 389 kts | 313° |
| 2026-05-08 19:56 | 49.66831 | 4.96579 | 24096 ft | 389 kts | 313° |
| 2026-05-08 19:56 | 49.68654 | 4.93493 | 24094 ft | 389 kts | 313° |
| 2026-05-08 19:56 | 49.70463 | 4.90385 | 24096 ft | 389 kts | 313° |
| 2026-05-08 19:56 | 49.72267 | 4.87277 | 24079 ft | 388 kts | 313° |
| 2026-05-08 19:57 | 49.74059 | 4.84188 | 23599 ft | 385 kts | 312° |
| 2026-05-08 19:57 | 49.75162 | 4.82045 | 23195 ft | 384 kts | 303° |
| 2026-05-08 19:57 | 49.76266 | 4.78300 | 22643 ft | 383 kts | 285° |
| 2026-05-08 19:57 | 49.76578 | 4.74230 | 22115 ft | 381 kts | 268° |
| 2026-05-08 19:58 | 49.76066 | 4.70226 | 21608 ft | 380 kts | 250° |
| 2026-05-08 19:58 | 49.75075 | 4.66439 | 21087 ft | 378 kts | 248° |
| 2026-05-08 19:58 | 49.74072 | 4.62681 | 20597 ft | 375 kts | 248° |
| 2026-05-08 19:58 | 49.73081 | 4.58975 | 20160 ft | 372 kts | 248° |
| 2026-05-08 19:59 | 49.72109 | 4.55342 | 19712 ft | 368 kts | 248° |
| 2026-05-08 19:59 | 49.71133 | 4.51702 | 19272 ft | 365 kts | 248° |
| 2026-05-08 19:59 | 49.70164 | 4.48084 | 19000 ft | 363 kts | 248° |
| 2026-05-08 19:59 | 49.69197 | 4.44476 | 18502 ft | 362 kts | 247° |
| 2026-05-08 20:00 | 49.68235 | 4.40896 | 18014 ft | 359 kts | 247° |
| 2026-05-08 20:00 | 49.67281 | 4.37350 | 17535 ft | 356 kts | 247° |
| 2026-05-08 20:00 | 49.66335 | 4.33833 | 17057 ft | 353 kts | 247° |
| 2026-05-08 20:00 | 49.65392 | 4.30334 | 16598 ft | 350 kts | 247° |
| 2026-05-08 20:01 | 49.64458 | 4.26877 | 16154 ft | 348 kts | 247° |
| 2026-05-08 20:01 | 49.63531 | 4.23451 | 15712 ft | 345 kts | 247° |
| 2026-05-08 20:01 | 49.62606 | 4.20049 | 15273 ft | 343 kts | 247° |
| 2026-05-08 20:01 | 49.61686 | 4.16666 | 15080 ft | 342 kts | 247° |
| 2026-05-08 20:02 | 49.60767 | 4.13281 | 15090 ft | 343 kts | 247° |
| 2026-05-08 20:02 | 49.59841 | 4.09890 | 15092 ft | 343 kts | 246° |
| 2026-05-08 20:02 | 49.58914 | 4.06505 | 15092 ft | 343 kts | 246° |
| 2026-05-08 20:02 | 49.57994 | 4.03144 | 15092 ft | 343 kts | 246° |
| 2026-05-08 20:03 | 49.57057 | 3.99725 | 15092 ft | 343 kts | 246° |
| 2026-05-08 20:03 | 49.56130 | 3.96336 | 15092 ft | 343 kts | 246° |
| 2026-05-08 20:03 | 49.55214 | 3.92994 | 15089 ft | 343 kts | 246° |
| 2026-05-08 20:03 | 49.54285 | 3.89613 | 15086 ft | 343 kts | 246° |
| 2026-05-08 20:04 | 49.53353 | 3.86235 | 15087 ft | 343 kts | 246° |
| 2026-05-08 20:04 | 49.52422 | 3.82857 | 15086 ft | 343 kts | 246° |
| 2026-05-08 20:04 | 49.51491 | 3.79475 | 15087 ft | 343 kts | 246° |
| 2026-05-08 20:04 | 49.50548 | 3.76055 | 15087 ft | 343 kts | 246° |
| 2026-05-08 20:05 | 49.49615 | 3.72674 | 15084 ft | 343 kts | 246° |
| 2026-05-08 20:05 | 49.48694 | 3.69344 | 15084 ft | 343 kts | 246° |
| 2026-05-08 20:05 | 49.47761 | 3.65969 | 15084 ft | 343 kts | 246° |
| 2026-05-08 20:05 | 49.46819 | 3.62593 | 15082 ft | 343 kts | 246° |
| 2026-05-08 20:06 | 49.45878 | 3.59232 | 15085 ft | 342 kts | 246° |
| 2026-05-08 20:06 | 49.44938 | 3.55882 | 15089 ft | 342 kts | 246° |
| 2026-05-08 20:06 | 49.43998 | 3.52525 | 15084 ft | 342 kts | 246° |
| 2026-05-08 20:06 | 49.43055 | 3.49157 | 15084 ft | 342 kts | 246° |
| 2026-05-08 20:07 | 49.42115 | 3.45800 | 15084 ft | 342 kts | 246° |
| 2026-05-08 20:07 | 49.41184 | 3.42442 | 15084 ft | 342 kts | 247° |
| 2026-05-08 20:07 | 49.40280 | 3.39068 | 15084 ft | 342 kts | 248° |
| 2026-05-08 20:07 | 49.39384 | 3.35681 | 15084 ft | 342 kts | 248° |
| 2026-05-08 20:08 | 49.38494 | 3.32301 | 15082 ft | 342 kts | 248° |
| 2026-05-08 20:08 | 49.37605 | 3.28926 | 14878 ft | 339 kts | 248° |
| 2026-05-08 20:08 | 49.36717 | 3.25595 | 14434 ft | 337 kts | 247° |
| 2026-05-08 20:08 | 49.35829 | 3.22286 | 14009 ft | 334 kts | 247° |
| 2026-05-08 20:09 | 49.34944 | 3.19004 | 13565 ft | 332 kts | 247° |
| 2026-05-08 20:09 | 49.34064 | 3.15752 | 13103 ft | 329 kts | 247° |
| 2026-05-08 20:09 | 49.33192 | 3.12532 | 12651 ft | 326 kts | 247° |
| 2026-05-08 20:09 | 49.32326 | 3.09335 | 12185 ft | 323 kts | 247° |
| 2026-05-08 20:10 | 49.31466 | 3.06165 | 11725 ft | 321 kts | 247° |
| 2026-05-08 20:10 | 49.30624 | 3.03059 | 11272 ft | 319 kts | 247° |
| 2026-05-08 20:10 | 49.29776 | 2.99930 | 11067 ft | 318 kts | 247° |
| 2026-05-08 20:10 | 49.28926 | 2.96802 | 11086 ft | 318 kts | 247° |
| 2026-05-08 20:11 | 49.28072 | 2.93667 | 11084 ft | 319 kts | 247° |
| 2026-05-08 20:11 | 49.27224 | 2.90555 | 11084 ft | 304 kts | 247° |
| 2026-05-08 20:11 | 49.26432 | 2.87651 | 11079 ft | 288 kts | 247° |
| 2026-05-08 20:11 | 49.25678 | 2.84887 | 11082 ft | 283 kts | 247° |
| 2026-05-08 20:12 | 49.24921 | 2.82112 | 11082 ft | 282 kts | 247° |
| 2026-05-08 20:12 | 49.24161 | 2.79343 | 11081 ft | 282 kts | 247° |
| 2026-05-08 20:12 | 49.23390 | 2.76545 | 11081 ft | 282 kts | 247° |
| 2026-05-08 20:12 | 49.22627 | 2.73775 | 11081 ft | 282 kts | 247° |
| 2026-05-08 20:13 | 49.21878 | 2.71049 | 11077 ft | 282 kts | 247° |
| 2026-05-08 20:13 | 49.21115 | 2.68281 | 11081 ft | 282 kts | 247° |
| 2026-05-08 20:13 | 49.20353 | 2.65521 | 11091 ft | 282 kts | 247° |
| 2026-05-08 20:13 | 49.19586 | 2.62748 | 11077 ft | 284 kts | 247° |
| 2026-05-08 20:14 | 49.18820 | 2.59971 | 10759 ft | 282 kts | 247° |
| 2026-05-08 20:14 | 49.18197 | 2.57140 | 10389 ft | 281 kts | 259° |
| 2026-05-08 20:14 | 49.18027 | 2.54174 | 10026 ft | 280 kts | 268° |
| 2026-05-08 20:14 | 49.17968 | 2.51212 | 9623 ft | 278 kts | 268° |
| 2026-05-08 20:15 | 49.17906 | 2.48258 | 9197 ft | 278 kts | 268° |
| 2026-05-08 20:15 | 49.17843 | 2.45316 | 8794 ft | 276 kts | 268° |
| 2026-05-08 20:15 | 49.17778 | 2.42391 | 8390 ft | 275 kts | 267° |
| 2026-05-08 20:15 | 49.17713 | 2.39472 | 7960 ft | 274 kts | 267° |
| 2026-05-08 20:16 | 49.17650 | 2.36567 | 7567 ft | 272 kts | 267° |
| 2026-05-08 20:16 | 49.17607 | 2.33680 | 7135 ft | 272 kts | 268° |
| 2026-05-08 20:16 | 49.17582 | 2.30784 | 6708 ft | 272 kts | 268° |
| 2026-05-08 20:16 | 49.17555 | 2.27898 | 6273 ft | 272 kts | 265° |
| 2026-05-08 20:17 | 49.17081 | 2.25149 | 5823 ft | 268 kts | 240° |
| 2026-05-08 20:17 | 49.16064 | 2.22772 | 5351 ft | 268 kts | 232° |
| 2026-05-08 20:17 | 49.14807 | 2.20701 | 4904 ft | 265 kts | 212° |
| 2026-05-08 20:17 | 49.13130 | 2.19631 | 4457 ft | 262 kts | 194° |
| 2026-05-08 20:18 | 49.11368 | 2.18924 | 4051 ft | 261 kts | 192° |
| 2026-05-08 20:18 | 49.09598 | 2.18256 | 4005 ft | 264 kts | 192° |
| 2026-05-08 20:18 | 49.07826 | 2.17663 | 4009 ft | 264 kts | 185° |
| 2026-05-08 20:18 | 49.06003 | 2.17560 | 4013 ft | 250 kts | 179° |
| 2026-05-08 20:19 | 49.04322 | 2.17550 | 3987 ft | 235 kts | 174° |
| 2026-05-08 20:19 | 49.02810 | 2.18202 | 3978 ft | 228 kts | 148° |
| 2026-05-08 20:19 | 49.01670 | 2.19840 | 3971 ft | 226 kts | 121° |
| 2026-05-08 20:19 | 49.01143 | 2.22080 | 3981 ft | 226 kts | 99° |
| 2026-05-08 20:20 | 49.01046 | 2.24463 | 3988 ft | 226 kts | 89° |
| 2026-05-08 20:20 | 49.01092 | 2.26799 | 3887 ft | 217 kts | 88° |
| 2026-05-08 20:20 | 49.01187 | 2.29081 | 3629 ft | 214 kts | 84° |
| 2026-05-08 20:20 | 49.01335 | 2.31331 | 3349 ft | 212 kts | 83° |
| 2026-05-08 20:21 | 49.01526 | 2.33544 | 3090 ft | 210 kts | 83° |
| 2026-05-08 20:21 | 49.01689 | 2.35737 | 2836 ft | 206 kts | 84° |
| 2026-05-08 20:21 | 49.01770 | 2.37903 | 2562 ft | 204 kts | 88° |
| 2026-05-08 20:21 | 49.01799 | 2.40036 | 2336 ft | 192 kts | 87° |
| 2026-05-08 20:22 | 49.01863 | 2.42000 | 2214 ft | 182 kts | 86° |
| 2026-05-08 20:22 | 49.01952 | 2.43889 | 1824 ft | 177 kts | 84° |
| 2026-05-08 20:22 | 49.02105 | 2.45733 | 1485 ft | 175 kts | 82° |
| 2026-05-08 20:22 | 49.02194 | 2.46948 | 1270 ft | 175 kts | 84° |
| 2026-05-08 20:23 | 49.02304 | 2.49406 | 826 ft | 176 kts | 84° |
| 2026-05-08 20:23 | 49.02406 | 2.51270 | 552 ft | 175 kts | 83° |
| 2026-05-08 20:23 | 49.02504 | 2.53045 | 359 ft | 158 kts | 84° |
| 2026-05-08 20:23 | 49.02588 | 2.54485 | 351 ft | 94 kts | 84° |
| 2026-05-08 20:24 | 49.02608 | 2.54917 | 358 ft | 24 kts | 86° |
| 2026-05-08 20:24 | 49.02594 | 2.55170 | 364 ft | 24 kts | 104° |
| 2026-05-08 20:24 | 49.02532 | 2.55418 | 358 ft | 26 kts | 118° |
| 2026-05-08 20:24 | 49.02476 | 2.55584 | 362 ft | 8 kts | 134° |
| 2026-05-08 20:25 | 49.02426 | 2.55610 | 358 ft | 7 kts | 172° |
| 2026-05-08 20:25 | 49.02382 | 2.55618 | 354 ft | 0 kts | 174° |
| 2026-05-08 20:26 | 49.02363 | 2.55620 | 354 ft | 13 kts | 174° |
| 2026-05-08 20:27 | 49.02256 | 2.55635 | 357 ft | 15 kts | 178° |
| 2026-05-08 20:27 | 49.02156 | 2.55643 | 360 ft | 14 kts | 175° |
| 2026-05-08 20:27 | 49.02078 | 2.55600 | 362 ft | 12 kts | 234° |
| 2026-05-08 20:27 | 49.02063 | 2.55485 | 361 ft | 11 kts | 264° |
| 2026-05-08 20:28 | 49.02055 | 2.55347 | 354 ft | 24 kts | 266° |
| 2026-05-08 20:28 | 49.02041 | 2.55090 | 360 ft | 25 kts | 265° |
| 2026-05-08 20:28 | 49.02027 | 2.54817 | 354 ft | 27 kts | 265° |
| 2026-05-08 20:28 | 49.02011 | 2.54522 | 354 ft | 29 kts | 265° |
| 2026-05-08 20:29 | 49.01991 | 2.54226 | 354 ft | 23 kts | 253° |
| 2026-05-08 20:29 | 49.01862 | 2.54139 | 358 ft | 22 kts | 169° |
| 2026-05-08 20:29 | 49.01813 | 2.54310 | 360 ft | 19 kts | 103° |
| 2026-05-08 20:29 | 49.01748 | 2.54503 | 363 ft | 22 kts | 125° |
| 2026-05-08 20:30 | 49.01642 | 2.54662 | 361 ft | 22 kts | 146° |
| 2026-05-08 20:30 | 49.01528 | 2.54735 | 361 ft | 10 kts | 163° |
| 2026-05-08 20:30 | 49.01495 | 2.54683 | 358 ft | 8 kts | 279° |
| 2026-05-08 20:30 | 49.01501 | 2.54611 | 354 ft | 6 kts | 257° |
| 2026-05-08 20:31 | 49.01499 | 2.54600 | 362 ft | 0 kts | 257° |
| 2026-05-08 20:31 | 49.01501 | 2.54613 | 354 ft | 0 kts | 257° |